Time;durP1;ratioP1;P1;durP2;ratioP2;P2;SDS_P1;SDS_P2;PMS_P1;PMS_P2;Temp;Humidity;BMP_temperature;BMP_pressure;BME280_temperature;BME280_humidity;BME280_pressure;Samples;Min_cycle;Max_cycle;Signal;HPM_P1;HPM_P2
2022/10/19 00:00:19;;;;;;;15.10;3.70;;;;;;;;;;5013853;28;20057;-72
2022/10/19 00:02:45;;;;;;;18.20;3.38;;;;;;;;;;5013878;28;20049;-71
2022/10/19 00:05:12;;;;;;;11.40;3.20;;;;;;;;;;5013809;28;20049;-72
2022/10/19 00:07:38;;;;;;;13.93;3.80;;;;;;;;;;5014356;28;20370;-72
2022/10/19 00:10:04;;;;;;;12.50;3.10;;;;;;;;;;5013817;28;20095;-72
2022/10/19 00:12:30;;;;;;;;;;;;;;;;;;5014080;28;20050;-72
2022/10/19 00:14:56;;;;;;;13.52;3.63;;;;;;;;;;5013638;28;19965;-72
2022/10/19 00:17:22;;;;;;;14.23;3.60;;;;;;;;;;5014576;28;20046;-72
2022/10/19 00:19:48;;;;;;;16.83;3.78;;;;;;;;;;5013341;28;20133;-72
2022/10/19 00:22:14;;;;;;;12.98;3.30;;;;;;;;;;5014180;28;20049;-72
2022/10/19 00:24:41;;;;;;;14.63;3.45;;;;;;;;;;5013525;28;20045;-72
2022/10/19 00:27:07;;;;;;;11.88;3.28;;;;;;;;;;5013669;28;20049;-72
2022/10/19 00:29:33;;;;;;;16.70;3.85;;;;;;;;;;5013613;28;20086;-72
2022/10/19 00:31:59;;;;;;;14.63;3.72;;;;;;;;;;5013548;28;20050;-72
2022/10/19 00:34:25;;;;;;;13.63;2.88;;;;;;;;;;5013578;28;20057;-72
2022/10/19 00:36:51;;;;;;;12.90;3.20;;;;;;;;;;5013496;28;20057;-73
2022/10/19 00:39:17;;;;;;;14.30;3.20;;;;;;;;;;5013610;28;20052;-72
2022/10/19 00:41:45;;;;;;;12.13;3.20;;;;;;;;;;5013350;28;20494;-73
2022/10/19 00:44:11;;;;;;;20.55;3.70;;;;;;;;;;5013385;28;20042;-73
2022/10/19 00:46:39;;;;;;;11.98;2.92;;;;;;;;;;5013483;28;20451;-73
2022/10/19 00:49:21;;;;;;;12.90;2.90;;;;;;;;;;5013798;28;20100;-73
2022/10/19 00:51:50;;;;;;;10.13;2.75;;;;;;;;;;5013311;28;20056;-72
2022/10/19 00:54:17;;;;;;;12.43;2.80;;;;;;;;;;5013374;28;20160;-72
2022/10/19 00:56:43;;;;;;;;;;;;;;;;;;5013744;28;20046;-72
2022/10/19 00:59:09;;;;;;;16.00;3.10;;;;;;;;;;5013762;28;20366;-72
2022/10/19 01:01:35;;;;;;;14.52;3.05;;;;;;;;;;5013109;28;20492;-72
2022/10/19 01:04:03;;;;;;;15.13;3.10;;;;;;;;;;5013258;28;20045;-72
2022/10/19 01:06:29;;;;;;;15.18;2.80;;;;;;;;;;5013461;28;20077;-72
2022/10/19 01:08:55;;;;;;;13.10;2.83;;;;;;;;;;5015298;28;20129;-72
2022/10/19 01:11:21;;;;;;;15.32;2.88;;;;;;;;;;5030519;28;20081;-71
2022/10/19 01:14:06;;;;;;;12.55;2.88;;;;;;;;;;5022250;28;20058;-72
2022/10/19 01:16:35;;;;;;;13.40;3.08;;;;;;;;;;5028491;28;20143;-72
2022/10/19 01:19:10;;;;;;;10.52;2.70;;;;;;;;;;5013063;28;20085;-72
2022/10/19 01:21:47;;;;;;;8.63;2.30;;;;;;;;;;5012483;28;20172;-72
2022/10/19 01:24:22;;;;;;;14.88;3.25;;;;;;;;;;5013166;28;20589;-72
2022/10/19 01:27:00;;;;;;;14.05;2.80;;;;;;;;;;5013586;28;20046;-72
2022/10/19 01:29:26;;;;;;;13.27;2.72;;;;;;;;;;5028586;28;20049;-72
2022/10/19 01:32:11;;;;;;;11.25;2.60;;;;;;;;;;5015048;28;20048;-73
2022/10/19 01:34:46;;;;;;;10.82;2.90;;;;;;;;;;5016690;28;20050;-72
2022/10/19 01:37:17;;;;;;;13.38;3.83;;;;;;;;;;5016979;28;20046;-73
2022/10/19 01:39:44;;;;;;;14.68;2.88;;;;;;;;;;5017310;28;20042;-72
2022/10/19 01:42:22;;;;;;;12.38;2.53;;;;;;;;;;4998774;28;20427;-72
2022/10/19 01:45:08;;;;;;;13.60;2.67;;;;;;;;;;5016383;28;20045;-72
2022/10/19 01:47:48;;;;;;;12.90;2.50;;;;;;;;;;5016626;28;20046;-72
2022/10/19 01:50:23;;;;;;;15.98;3.30;;;;;;;;;;5015476;28;20057;-73
2022/10/19 01:52:50;;;;;;;14.13;3.00;;;;;;;;;;5015827;28;20553;-72
2022/10/19 01:55:17;;;;;;;15.13;3.03;;;;;;;;;;5016142;28;20124;-73
2022/10/19 01:57:46;;;;;;;13.30;2.60;;;;;;;;;;5016394;28;20048;-72
2022/10/19 02:00:14;;;;;;;11.60;2.60;;;;;;;;;;5015893;28;20045;-72
2022/10/19 02:02:42;;;;;;;11.82;2.80;;;;;;;;;;5015901;28;20406;-72
2022/10/19 02:05:10;;;;;;;13.50;2.88;;;;;;;;;;5015863;28;20378;-72
2022/10/19 02:07:37;;;;;;;12.93;2.60;;;;;;;;;;5016274;28;20426;-72
2022/10/19 02:10:04;;;;;;;17.30;3.00;;;;;;;;;;5015403;28;20046;-72
2022/10/19 02:12:29;;;;;;;;;;;;;;;;;;5015513;28;20383;-72
2022/10/19 02:14:57;;;;;;;13.98;2.53;;;;;;;;;;5015496;28;19928;-72
2022/10/19 02:17:26;;;;;;;11.35;2.55;;;;;;;;;;5015347;28;20084;-72
2022/10/19 02:19:53;;;;;;;17.15;2.90;;;;;;;;;;5015183;28;20088;-72
2022/10/19 02:22:19;;;;;;;14.07;2.88;;;;;;;;;;4995618;28;20066;-72
2022/10/19 02:24:45;;;;;;;16.70;2.83;;;;;;;;;;4996115;28;20050;-72
2022/10/19 02:27:12;;;;;;;16.60;3.13;;;;;;;;;;4995663;28;20093;-73
2022/10/19 02:29:38;;;;;;;;;;;;;;;;;;4996050;28;20082;-72
2022/10/19 02:32:04;;;;;;;13.15;2.65;;;;;;;;;;4996008;28;20310;-73
2022/10/19 02:34:30;;;;;;;17.10;3.28;;;;;;;;;;4995426;28;20060;-73
2022/10/19 02:36:57;;;;;;;15.07;3.35;;;;;;;;;;5011199;28;20128;-72
2022/10/19 02:39:23;;;;;;;10.95;2.72;;;;;;;;;;5010718;28;20108;-72
2022/10/19 02:42:09;;;;;;;15.65;3.05;;;;;;;;;;4995898;28;20093;-72
2022/10/19 02:44:46;;;;;;;20.15;3.05;;;;;;;;;;4993832;28;20085;-73
2022/10/19 02:47:12;;;;;;;12.57;2.58;;;;;;;;;;4995384;28;20052;-72
2022/10/19 02:49:38;;;;;;;16.13;2.95;;;;;;;;;;5010535;28;20050;-72
2022/10/19 02:52:09;;;;;;;16.67;3.42;;;;;;;;;;4995845;28;20049;-73
2022/10/19 02:54:35;;;;;;;15.10;2.95;;;;;;;;;;4995864;28;20054;-72
2022/10/19 02:57:01;;;;;;;;;;;;;;;;;;5010923;28;20441;-73
2022/10/19 02:59:27;;;;;;;15.68;3.22;;;;;;;;;;5008548;28;19977;-73
2022/10/19 03:01:53;;;;;;;15.48;3.33;;;;;;;;;;4999974;28;20050;-73
2022/10/19 03:04:19;;;;;;;14.68;3.42;;;;;;;;;;4996033;28;20047;-73
2022/10/19 03:06:45;;;;;;;13.50;2.97;;;;;;;;;;4995304;28;20130;-73
2022/10/19 03:09:11;;;;;;;16.23;3.50;;;;;;;;;;4995172;28;20047;-74
2022/10/19 03:11:38;;;;;;;16.92;3.00;;;;;;;;;;4995059;28;20089;-73
2022/10/19 03:14:04;;;;;;;15.38;3.58;;;;;;;;;;4995362;28;20042;-74
2022/10/19 03:16:30;;;;;;;15.48;3.30;;;;;;;;;;4994800;28;20112;-73
2022/10/19 03:18:56;;;;;;;13.60;3.08;;;;;;;;;;4995010;28;20475;-73
2022/10/19 03:21:22;;;;;;;17.85;3.13;;;;;;;;;;5006568;28;20487;-74
2022/10/19 03:23:48;;;;;;;13.88;3.00;;;;;;;;;;5014503;28;20131;-73
2022/10/19 03:26:15;;;;;;;16.83;3.10;;;;;;;;;;5014199;28;20045;-74
2022/10/19 03:28:41;;;;;;;13.82;2.90;;;;;;;;;;5014321;28;20049;-73
2022/10/19 03:31:07;;;;;;;14.73;3.40;;;;;;;;;;5013923;28;20046;-73
2022/10/19 03:33:33;;;;;;;17.83;3.70;;;;;;;;;;5014643;28;20470;-74
2022/10/19 03:36:17;;;;;;;15.05;3.25;;;;;;;;;;5014211;28;20061;-73
2022/10/19 03:38:43;;;;;;;16.98;3.33;;;;;;;;;;5014081;28;20141;-73
2022/10/19 03:41:09;;;;;;;16.98;3.20;;;;;;;;;;5013623;28;20053;-73
2022/10/19 03:43:35;;;;;;;15.55;3.17;;;;;;;;;;5014546;28;20403;-74
2022/10/19 03:46:02;;;;;;;19.85;3.22;;;;;;;;;;5014121;28;20055;-74
2022/10/19 03:48:28;;;;;;;13.05;3.13;;;;;;;;;;5013954;28;20125;-73
2022/10/19 03:51:01;;;;;;;17.40;3.65;;;;;;;;;;5013856;28;20053;-73
2022/10/19 03:53:30;;;;;;;17.10;3.70;;;;;;;;;;5028750;28;20040;-73
2022/10/19 03:56:00;;;;;;;16.50;2.90;;;;;;;;;;5013768;28;20058;-73
2022/10/19 03:58:26;;;;;;;17.05;3.38;;;;;;;;;;5014298;28;20064;-73
2022/10/19 04:00:52;;;;;;;19.40;3.63;;;;;;;;;;5013740;28;20042;-74
2022/10/19 04:03:18;;;;;;;16.75;3.25;;;;;;;;;;5013983;28;20136;-73
2022/10/19 04:05:44;;;;;;;17.90;3.70;;;;;;;;;;5014112;28;20046;-73
2022/10/19 04:08:11;;;;;;;18.27;4.00;;;;;;;;;;5013596;28;20116;-73
2022/10/19 04:10:37;;;;;;;18.85;3.60;;;;;;;;;;5013767;28;20482;-73
2022/10/19 04:13:03;;;;;;;14.45;3.10;;;;;;;;;;5013744;28;20389;-73
2022/10/19 04:15:29;;;;;;;14.73;3.53;;;;;;;;;;5013365;28;20494;-73
2022/10/19 04:17:55;;;;;;;14.35;3.20;;;;;;;;;;4996339;28;20482;-73
2022/10/19 04:20:21;;;;;;;17.90;3.50;;;;;;;;;;4996649;28;20414;-73
2022/10/19 04:22:47;;;;;;;23.42;4.05;;;;;;;;;;5014139;28;20045;-73
2022/10/19 04:25:13;;;;;;;19.20;3.63;;;;;;;;;;5029300;28;20104;-73
2022/10/19 04:27:39;;;;;;;15.23;3.42;;;;;;;;;;5013520;28;20081;-73
2022/10/19 04:30:05;;;;;;;14.57;3.45;;;;;;;;;;5013726;28;20052;-75
2022/10/19 04:32:31;;;;;;;;;;;;;;;;;;5014072;28;20121;-73
2022/10/19 04:34:57;;;;;;;17.77;3.45;;;;;;;;;;5013871;28;20023;-73
2022/10/19 04:37:23;;;;;;;15.57;3.28;;;;;;;;;;5014045;28;20386;-73
2022/10/19 04:39:49;;;;;;;16.45;3.33;;;;;;;;;;5029158;28;20045;-73
2022/10/19 04:42:15;;;;;;;18.10;3.38;;;;;;;;;;5013584;28;20184;-74
2022/10/19 04:44:41;;;;;;;15.45;3.00;;;;;;;;;;5029466;28;20050;-73
2022/10/19 04:47:07;;;;;;;22.52;3.85;;;;;;;;;;5014723;28;20053;-73
2022/10/19 04:49:33;;;;;;;17.65;3.90;;;;;;;;;;5029331;28;20063;-73
2022/10/19 04:51:59;;;;;;;21.85;3.58;;;;;;;;;;5027272;28;20049;-73
2022/10/19 04:54:25;;;;;;;19.55;3.85;;;;;;;;;;5014157;28;20085;-73
2022/10/19 04:56:52;;;;;;;14.00;2.83;;;;;;;;;;5013470;28;20053;-72
2022/10/19 04:59:19;;;;;;;18.00;3.83;;;;;;;;;;5013011;28;20058;-73
2022/10/19 05:01:45;;;;;;;19.05;3.75;;;;;;;;;;5013785;28;20382;-73
2022/10/19 05:04:11;;;;;;;17.65;3.75;;;;;;;;;;5014192;28;20049;-73
2022/10/19 05:06:37;;;;;;;19.23;3.22;;;;;;;;;;5015644;28;20077;-73
2022/10/19 05:09:03;;;;;;;17.42;4.30;;;;;;;;;;5016793;28;20425;-73
2022/10/19 05:11:29;;;;;;;17.75;4.00;;;;;;;;;;5016600;28;20129;-73
2022/10/19 05:13:56;;;;;;;16.00;3.22;;;;;;;;;;5016953;28;20050;-73
2022/10/19 05:16:23;;;;;;;14.80;3.42;;;;;;;;;;5032124;28;20133;-73
2022/10/19 05:18:50;;;;;;;25.83;4.65;;;;;;;;;;5017001;28;20049;-73
2022/10/19 05:21:17;;;;;;;19.73;4.03;;;;;;;;;;5032055;28;20068;-73
2022/10/19 05:23:43;;;;;;;21.73;4.00;;;;;;;;;;5016337;28;20064;-73
2022/10/19 05:26:09;;;;;;;;;;;;;;;;;;5017588;28;20046;-73
2022/10/19 05:28:35;;;;;;;20.02;4.45;;;;;;;;;;5016405;28;19935;-73
2022/10/19 05:31:01;;;;;;;;;;;;;;;;;;5016774;28;20042;-73
2022/10/19 05:33:27;;;;;;;19.42;5.22;;;;;;;;;;5016158;28;19917;-73
2022/10/19 05:35:53;;;;;;;18.90;3.85;;;;;;;;;;4999008;28;20046;-72
2022/10/19 05:38:19;;;;;;;18.77;3.90;;;;;;;;;;5016346;28;20048;-73
2022/10/19 05:40:46;;;;;;;18.48;4.50;;;;;;;;;;5016835;28;20125;-72
2022/10/19 05:43:12;;;;;;;21.58;4.07;;;;;;;;;;5016515;28;20038;-73
2022/10/19 05:45:38;;;;;;;22.65;4.85;;;;;;;;;;5016385;28;20037;-74
2022/10/19 05:48:04;;;;;;;20.80;4.30;;;;;;;;;;5016015;28;20056;-73
2022/10/19 05:50:30;;;;;;;19.45;4.03;;;;;;;;;;5016174;28;20129;-73
2022/10/19 05:52:56;;;;;;;18.35;4.15;;;;;;;;;;5015549;28;20073;-73
2022/10/19 05:55:22;;;;;;;18.88;3.60;;;;;;;;;;5015916;28;20403;-74
2022/10/19 05:57:48;;;;;;;14.85;3.58;;;;;;;;;;5015719;28;20425;-73
2022/10/19 06:00:14;;;;;;;19.17;3.78;;;;;;;;;;5030393;28;20398;-73
2022/10/19 06:02:40;;;;;;;14.75;3.55;;;;;;;;;;5014867;28;20061;-73
2022/10/19 06:05:07;;;;;;;15.55;3.30;;;;;;;;;;5015157;28;20054;-73
2022/10/19 06:07:33;;;;;;;21.52;3.83;;;;;;;;;;5029923;28;20089;-74
2022/10/19 06:09:59;;;;;;;18.08;3.75;;;;;;;;;;5014390;28;20057;-73
2022/10/19 06:12:25;;;;;;;17.58;3.40;;;;;;;;;;5014387;28;20505;-74
2022/10/19 06:14:51;;;;;;;14.88;3.88;;;;;;;;;;5014514;28;20046;-74
2022/10/19 06:17:17;;;;;;;23.63;3.92;;;;;;;;;;5013997;28;20053;-74
2022/10/19 06:19:43;;;;;;;14.45;3.72;;;;;;;;;;5029422;28;20061;-74
2022/10/19 06:22:09;;;;;;;20.60;3.60;;;;;;;;;;5029384;28;20061;-75
2022/10/19 06:24:35;;;;;;;20.23;4.35;;;;;;;;;;5014556;28;20162;-73
2022/10/19 06:27:01;;;;;;;16.13;3.90;;;;;;;;;;5014521;28;20065;-74
2022/10/19 06:29:27;;;;;;;18.00;3.50;;;;;;;;;;5014017;28;20091;-73
2022/10/19 06:31:54;;;;;;;24.30;3.67;;;;;;;;;;5014055;28;20046;-73
2022/10/19 06:34:21;;;;;;;19.75;3.95;;;;;;;;;;5013868;28;20089;-69
2022/10/19 06:36:47;;;;;;;16.85;3.67;;;;;;;;;;5014064;28;20416;-73
2022/10/19 06:39:13;;;;;;;16.05;3.70;;;;;;;;;;5014162;28;20045;-72
2022/10/19 06:41:39;;;;;;;18.23;3.50;;;;;;;;;;5024834;28;20041;-74
2022/10/19 06:44:05;;;;;;;15.07;3.45;;;;;;;;;;5031166;28;20049;-73
2022/10/19 06:46:32;;;;;;;19.17;3.80;;;;;;;;;;5022262;28;20115;-73
2022/10/19 06:49:00;;;;;;;18.63;3.85;;;;;;;;;;5014470;28;20049;-74
2022/10/19 06:51:26;;;;;;;19.52;3.20;;;;;;;;;;5013451;28;20417;-75
2022/10/19 06:53:53;;;;;;;19.30;3.92;;;;;;;;;;5013905;28;20046;-72
2022/10/19 06:56:19;;;;;;;12.60;3.15;;;;;;;;;;5013408;28;20133;-73
2022/10/19 06:58:45;;;;;;;16.75;3.72;;;;;;;;;;4996279;28;20125;-73
2022/10/19 07:01:12;;;;;;;15.75;3.50;;;;;;;;;;5013931;28;20050;-73
2022/10/19 07:03:39;;;;;;;15.48;3.35;;;;;;;;;;5013721;28;20061;-73
2022/10/19 07:06:07;;;;;;;20.48;3.63;;;;;;;;;;5029081;28;20046;-73
2022/10/19 07:08:34;;;;;;;19.25;3.85;;;;;;;;;;4995665;28;20046;-73
2022/10/19 07:11:01;;;;;;;15.70;3.50;;;;;;;;;;5013202;28;20046;-74
2022/10/19 07:13:28;;;;;;;13.65;3.63;;;;;;;;;;4995564;28;20045;-73
2022/10/19 07:15:54;;;;;;;;;;;;;;;;;;4995825;28;20046;-74
2022/10/19 07:18:20;;;;;;;16.58;3.85;;;;;;;;;;5013264;28;19925;-74
2022/10/19 07:20:53;;;;;;;21.50;4.10;;;;;;;;;;5012817;28;20145;-73
2022/10/19 07:23:19;;;;;;;16.33;3.75;;;;;;;;;;5013017;28;20052;-74
2022/10/19 07:25:45;;;;;;;23.55;4.65;;;;;;;;;;4996228;28;20137;-73
2022/10/19 07:28:11;;;;;;;27.10;5.10;;;;;;;;;;5013234;28;20076;-74
2022/10/19 07:30:38;;;;;;;26.30;4.15;;;;;;;;;;5013220;28;20107;-73
2022/10/19 07:33:05;;;;;;;17.85;3.65;;;;;;;;;;5013847;28;20052;-73
2022/10/19 07:35:31;;;;;;;16.52;3.58;;;;;;;;;;5012942;28;20050;-74
2022/10/19 07:37:57;;;;;;;16.92;3.65;;;;;;;;;;5012909;28;20133;-73
2022/10/19 07:40:23;;;;;;;18.23;3.85;;;;;;;;;;5012901;28;20050;-74
2022/10/19 07:42:49;;;;;;;14.98;3.15;;;;;;;;;;4994952;28;20100;-74
2022/10/19 07:45:15;;;;;;;24.73;4.07;;;;;;;;;;5012881;28;20045;-73
2022/10/19 07:47:41;;;;;;;17.50;3.30;;;;;;;;;;5012720;28;20158;-74
2022/10/19 07:50:07;;;;;;;17.05;3.63;;;;;;;;;;4995402;28;20078;-74
2022/10/19 07:52:33;;;;;;;21.85;3.75;;;;;;;;;;5012579;28;20049;-75
2022/10/19 07:55:00;;;;;;;19.52;4.18;;;;;;;;;;5012741;28;20050;-78
2022/10/19 07:57:26;;;;;;;15.35;3.35;;;;;;;;;;5012738;28;20121;-76
2022/10/19 07:59:52;;;;;;;;;;;;;;;;;;5013365;28;20056;-77
2022/10/19 08:02:19;;;;;;;18.90;3.22;;;;;;;;;;5012493;28;19921;-77
2022/10/19 08:04:45;;;;;;;20.23;3.58;;;;;;;;;;5011698;28;20058;-75
2022/10/19 08:07:11;;;;;;;;;;;;;;;;;;4995525;28;20134;-76
2022/10/19 08:09:37;;;;;;;17.25;3.60;;;;;;;;;;5012504;28;19979;-77
2022/10/19 08:12:04;;;;;;;19.70;3.50;;;;;;;;;;5012334;28;20108;-76
2022/10/19 08:14:30;;;;;;;23.20;4.47;;;;;;;;;;5013197;28;20368;-76
2022/10/19 08:16:57;;;;;;;18.00;3.80;;;;;;;;;;5027494;28;20057;-76
2022/10/19 08:19:23;;;;;;;;;;;;;;;;;;4995678;28;20049;-76
2022/10/19 08:21:49;;;;;;;15.43;3.55;;;;;;;;;;5012126;28;19922;-76
2022/10/19 08:24:15;;;;;;;;;;;;;;;;;;5013539;28;20056;-77
2022/10/19 08:26:41;;;;;;;19.92;3.65;;;;;;;;;;5012615;28;20249;-74
2022/10/19 08:29:09;;;;;;;14.00;2.92;;;;;;;;;;5013135;28;20038;-77
2022/10/19 08:31:36;;;;;;;12.95;2.95;;;;;;;;;;5012431;28;20137;-77
2022/10/19 08:34:02;;;;;;;16.55;3.13;;;;;;;;;;5013011;28;20424;-76
2022/10/19 08:36:30;;;;;;;14.90;3.22;;;;;;;;;;5013318;28;20050;-76
2022/10/19 08:38:56;;;;;;;14.05;2.97;;;;;;;;;;4995522;28;20108;-76
2022/10/19 08:41:22;;;;;;;;;;;;;;;;;;5026624;28;20415;-75
2022/10/19 08:44:07;;;;;;;18.67;3.35;;;;;;;;;;5036808;28;19921;-74
2022/10/19 08:46:33;;;;;;;14.20;3.40;;;;;;;;;;5018336;28;20120;-76
2022/10/19 08:49:01;;;;;;;14.15;3.25;;;;;;;;;;5017277;28;20110;-79
2022/10/19 08:51:28;;;;;;;18.13;3.58;;;;;;;;;;5017065;28;20111;-78
2022/10/19 08:53:55;;;;;;;17.75;4.63;;;;;;;;;;5016255;28;20042;-77
2022/10/19 08:56:21;;;;;;;17.70;4.88;;;;;;;;;;5016000;28;20054;-78
2022/10/19 08:58:55;;;;;;;17.58;3.90;;;;;;;;;;4998670;28;20046;-77
2022/10/19 09:01:21;;;;;;;15.75;3.55;;;;;;;;;;4998734;28;20054;-76
2022/10/19 09:03:53;;;;;;;15.13;3.00;;;;;;;;;;5015964;28;20046;-78
2022/10/19 09:06:22;;;;;;;14.88;3.17;;;;;;;;;;5016170;28;20061;-80
2022/10/19 09:08:52;;;;;;;21.38;4.05;;;;;;;;;;5015886;28;20053;-76
2022/10/19 09:11:22;;;;;;;14.85;3.78;;;;;;;;;;5016450;28;20061;-79
2022/10/19 09:13:51;;;;;;;15.20;3.40;;;;;;;;;;5015834;28;20089;-75
2022/10/19 09:16:20;;;;;;;14.50;3.30;;;;;;;;;;5015911;28;20188;-78
2022/10/19 09:18:46;;;;;;;16.08;3.70;;;;;;;;;;5016467;28;20054;-80
2022/10/19 09:21:19;;;;;;;17.90;4.18;;;;;;;;;;5012130;28;20149;-80
2022/10/19 09:23:48;;;;;;;17.92;3.55;;;;;;;;;;5015976;28;20479;-81
2022/10/19 09:26:19;;;;;;;17.30;3.45;;;;;;;;;;5015812;28;20050;-78
2022/10/19 09:28:48;;;;;;;16.77;3.88;;;;;;;;;;5015985;28;20056;-85
2022/10/19 09:31:25;;;;;;;18.75;3.78;;;;;;;;;;4998829;28;20056;-84
2022/10/19 09:33:51;;;;;;;;;;;;;;;;;;5016771;28;20089;-85
2022/10/19 09:36:17;;;;;;;14.65;3.25;;;;;;;;;;5016148;28;19929;-87
2022/10/19 09:38:43;;;;;;;16.60;3.50;;;;;;;;;;5016686;28;20049;-84
2022/10/19 09:41:17;;;;;;;19.45;3.70;;;;;;;;;;4998334;28;20108;-75
2022/10/19 09:43:49;;;;;;;19.27;3.33;;;;;;;;;;5015543;28;20127;-74
2022/10/19 09:46:24;;;;;;;14.75;3.00;;;;;;;;;;5016037;28;20160;-77
2022/10/19 09:48:51;;;;;;;18.08;3.15;;;;;;;;;;5015688;28;20053;-78
2022/10/19 09:51:17;;;;;;;20.02;3.65;;;;;;;;;;5014683;28;20056;-76
2022/10/19 09:53:53;;;;;;;14.65;2.60;;;;;;;;;;5014541;28;20081;-78
2022/10/19 09:56:20;;;;;;;18.08;3.53;;;;;;;;;;5014954;28;20046;-85
2022/10/19 09:58:48;;;;;;;21.27;3.83;;;;;;;;;;5015141;28;20046;-83
2022/10/19 10:01:32;;;;;;;17.38;2.90;;;;;;;;;;5015798;28;20132;-87
2022/10/19 10:04:05;;;;;;;16.02;3.67;;;;;;;;;;5017837;28;20113;-81
2022/10/19 10:06:31;;;;;;;17.00;3.30;;;;;;;;;;5000700;28;20132;-84
2022/10/19 10:08:57;;;;;;;20.25;3.55;;;;;;;;;;4999289;28;20057;-82
2022/10/19 10:11:28;;;;;;;16.85;3.05;;;;;;;;;;5016091;28;20041;-84
2022/10/19 10:13:55;;;;;;;17.63;3.03;;;;;;;;;;5015085;28;20413;-79
2022/10/19 10:16:22;;;;;;;18.35;3.42;;;;;;;;;;5015744;28;20398;-89
2022/10/19 10:18:56;;;;;;;14.70;2.97;;;;;;;;;;5014849;28;20107;-71
2022/10/19 10:21:26;;;;;;;22.05;3.97;;;;;;;;;;5014227;28;20054;-78
2022/10/19 10:24:18;;;;;;;19.35;3.45;;;;;;;;;;5014818;28;20532;-78
2022/10/19 10:26:52;;;;;;;14.85;3.17;;;;;;;;;;5011737;28;20061;-81
2022/10/19 10:29:23;;;;;;;19.25;3.70;;;;;;;;;;5015367;28;20053;-82
2022/10/19 10:31:51;;;;;;;20.23;3.85;;;;;;;;;;5015219;28;20049;-78
2022/10/19 10:34:22;;;;;;;16.00;3.00;;;;;;;;;;5015923;28;20046;-75
2022/10/19 10:36:49;;;;;;;14.57;3.15;;;;;;;;;;5017434;28;20056;-77
2022/10/19 10:39:16;;;;;;;16.33;3.80;;;;;;;;;;5021122;28;20046;-74
2022/10/19 10:41:44;;;;;;;16.20;3.00;;;;;;;;;;5026499;28;20106;-78
2022/10/19 10:44:18;;;;;;;16.52;3.10;;;;;;;;;;5018930;28;20042;-73
2022/10/19 10:46:50;;;;;;;15.77;3.10;;;;;;;;;;5014584;28;20108;-71
2022/10/19 10:49:29;;;;;;;13.60;2.95;;;;;;;;;;5013743;28;20140;-72
2022/10/19 10:51:57;;;;;;;13.18;2.88;;;;;;;;;;5014976;28;20181;-75
2022/10/19 10:54:30;;;;;;;14.50;3.10;;;;;;;;;;5014181;28;20046;-77
2022/10/19 10:57:10;;;;;;;14.52;3.53;;;;;;;;;;5014035;28;20121;-75
2022/10/19 10:59:45;;;;;;;14.52;2.90;;;;;;;;;;5013685;28;20050;-74
2022/10/19 11:02:23;;;;;;;13.43;3.13;;;;;;;;;;5013957;28;20505;-81
2022/10/19 11:04:55;;;;;;;16.40;3.08;;;;;;;;;;5014754;28;20042;-80
2022/10/19 11:07:24;;;;;;;14.73;2.70;;;;;;;;;;5029036;28;20057;-78
2022/10/19 11:09:57;;;;;;;17.33;3.30;;;;;;;;;;5014321;28;20093;-77
2022/10/19 11:12:31;;;;;;;15.48;3.15;;;;;;;;;;5014489;28;20046;-78
2022/10/19 11:15:01;;;;;;;14.18;2.80;;;;;;;;;;4997338;28;20088;-77
2022/10/19 11:17:29;;;;;;;18.73;3.70;;;;;;;;;;4996937;28;20053;-76
2022/10/19 11:19:55;;;;;;;17.90;3.10;;;;;;;;;;5015144;28;20046;-81
2022/10/19 11:22:27;;;;;;;14.82;3.13;;;;;;;;;;5012276;28;20100;-75
2022/10/19 11:24:56;;;;;;;13.45;2.90;;;;;;;;;;5014706;28;20037;-76
2022/10/19 11:27:22;;;;;;;12.85;3.50;;;;;;;;;;4996447;28;20415;-78
2022/10/19 11:29:49;;;;;;;14.93;3.15;;;;;;;;;;5029261;28;20430;-73
2022/10/19 11:32:35;;;;;;;11.57;2.90;;;;;;;;;;4995832;28;20409;-77
2022/10/19 11:35:04;;;;;;;14.75;3.55;;;;;;;;;;5014156;28;20470;-74
2022/10/19 11:37:47;;;;;;;16.17;3.40;;;;;;;;;;5013918;28;20057;-77
2022/10/19 11:40:16;;;;;;;15.50;3.20;;;;;;;;;;4997677;28;20045;-78
2022/10/19 11:43:05;;;;;;;14.00;3.10;;;;;;;;;;4996597;28;20050;-78
2022/10/19 11:45:31;;;;;;;13.02;2.97;;;;;;;;;;5029464;28;20137;-79
2022/10/19 11:48:21;;;;;;;16.45;3.30;;;;;;;;;;4995929;28;20148;-76
2022/10/19 11:50:56;;;;;;;17.30;3.40;;;;;;;;;;4977451;28;20046;-77
2022/10/19 11:53:41;;;;;;;12.70;3.17;;;;;;;;;;5013255;28;20042;-78
2022/10/19 11:56:07;;;;;;;17.95;3.60;;;;;;;;;;5012968;28;20402;-82
2022/10/19 11:58:37;;;;;;;11.63;2.92;;;;;;;;;;5028635;28;20475;-74
2022/10/19 12:01:04;;;;;;;19.00;3.65;;;;;;;;;;5028104;28;20136;-74
2022/10/19 12:03:30;;;;;;;12.32;2.75;;;;;;;;;;5012716;28;20568;-74
2022/10/19 12:06:19;;;;;;;12.30;3.25;;;;;;;;;;5013318;28;20120;-76
2022/10/19 12:08:45;;;;;;;15.25;3.08;;;;;;;;;;5004977;28;20049;-72
2022/10/19 12:11:22;;;;;;;15.32;3.28;;;;;;;;;;5013250;28;20482;-74
2022/10/19 12:13:48;;;;;;;;;;;;;;;;;;4996067;28;20509;-74
2022/10/19 12:16:14;;;;;;;17.85;3.22;;;;;;;;;;5013080;28;19922;-75
2022/10/19 12:18:42;;;;;;;13.52;2.97;;;;;;;;;;5013107;28;20104;-71
2022/10/19 12:21:22;;;;;;;16.02;3.22;;;;;;;;;;5012378;28;20549;-70
2022/10/19 12:23:49;;;;;;;14.13;3.60;;;;;;;;;;5013126;28;20057;-69
2022/10/19 12:26:16;;;;;;;14.63;3.65;;;;;;;;;;5012821;28;20052;-71
2022/10/19 12:28:45;;;;;;;15.80;3.50;;;;;;;;;;5012680;28;20052;-71
2022/10/19 12:31:12;;;;;;;15.10;2.90;;;;;;;;;;5012562;28;20076;-80
2022/10/19 12:33:41;;;;;;;14.73;3.33;;;;;;;;;;5012853;28;20053;-72
2022/10/19 12:36:07;;;;;;;14.80;3.58;;;;;;;;;;5012898;28;20520;-73
2022/10/19 12:38:33;;;;;;;14.18;2.80;;;;;;;;;;5017684;28;20120;-71
2022/10/19 12:41:19;;;;;;;15.02;3.38;;;;;;;;;;5020296;28;20096;-72
2022/10/19 12:44:04;;;;;;;17.45;3.38;;;;;;;;;;5013016;28;20136;-72
2022/10/19 12:46:33;;;;;;;14.25;3.47;;;;;;;;;;5013039;28;20060;-71
2022/10/19 12:49:18;;;;;;;17.15;3.33;;;;;;;;;;5012890;28;20049;-71
2022/10/19 12:51:45;;;;;;;17.63;3.47;;;;;;;;;;5013345;28;20125;-71
2022/10/19 12:54:11;;;;;;;15.80;3.40;;;;;;;;;;5013607;28;20049;-72
2022/10/19 12:56:48;;;;;;;16.38;3.25;;;;;;;;;;5028253;28;20045;-73
2022/10/19 12:59:22;;;;;;;16.08;3.55;;;;;;;;;;5013389;28;20052;-73
2022/10/19 13:01:48;;;;;;;14.40;4.28;;;;;;;;;;5012584;28;20096;-73
2022/10/19 13:04:21;;;;;;;13.27;3.58;;;;;;;;;;5027835;28;20049;-72
2022/10/19 13:07:00;;;;;;;15.48;3.67;;;;;;;;;;5027674;28;20136;-74
2022/10/19 13:09:29;;;;;;;15.18;4.05;;;;;;;;;;5012821;28;20084;-73
2022/10/19 13:12:14;;;;;;;16.73;3.15;;;;;;;;;;5013310;28;20105;-73
2022/10/19 13:14:59;;;;;;;17.38;3.53;;;;;;;;;;5012927;28;20053;-73
2022/10/19 13:17:36;;;;;;;16.67;3.40;;;;;;;;;;4994902;28;20465;-72
2022/10/19 13:20:15;;;;;;;17.80;3.80;;;;;;;;;;5012436;28;20048;-74
2022/10/19 13:22:59;;;;;;;15.20;3.55;;;;;;;;;;5013158;28;20167;-72
2022/10/19 13:25:32;;;;;;;14.65;3.13;;;;;;;;;;5010772;28;20085;-73
2022/10/19 13:28:11;;;;;;;17.40;3.30;;;;;;;;;;5013949;28;20108;-72
2022/10/19 13:30:37;;;;;;;10.27;3.08;;;;;;;;;;5016447;28;20072;-71
2022/10/19 13:33:28;;;;;;;13.05;3.22;;;;;;;;;;5016240;28;20131;-71
2022/10/19 13:36:01;;;;;;;14.05;3.20;;;;;;;;;;5015794;28;20450;-73
2022/10/19 13:38:27;;;;;;;14.40;2.97;;;;;;;;;;5015923;28;20501;-73
2022/10/19 13:40:59;;;;;;;18.27;3.08;;;;;;;;;;5015498;28;20060;-72
2022/10/19 13:43:26;;;;;;;14.35;3.20;;;;;;;;;;5015159;28;20041;-71
2022/10/19 13:45:54;;;;;;;14.20;3.58;;;;;;;;;;5015343;28;20049;-71
2022/10/19 13:48:36;;;;;;;21.40;3.67;;;;;;;;;;5015263;28;20046;-73
2022/10/19 13:51:09;;;;;;;12.10;2.90;;;;;;;;;;5015904;28;20153;-75
2022/10/19 13:53:40;;;;;;;13.30;3.20;;;;;;;;;;5015499;28;20042;-77
2022/10/19 13:56:24;;;;;;;12.23;3.20;;;;;;;;;;5030840;28;20457;-73
2022/10/19 13:58:57;;;;;;;12.85;3.50;;;;;;;;;;5015304;28;20129;-72
2022/10/19 14:01:32;;;;;;;12.88;3.15;;;;;;;;;;5014937;28;20406;-71
2022/10/19 14:03:58;;;;;;;13.50;3.53;;;;;;;;;;5014993;28;20046;-74
2022/10/19 14:06:45;;;;;;;12.02;3.33;;;;;;;;;;5030184;28;20431;-75
2022/10/19 14:09:15;;;;;;;16.42;3.40;;;;;;;;;;5004524;28;20058;-71
2022/10/19 14:11:42;;;;;;;16.92;3.30;;;;;;;;;;5015315;28;20053;-73
2022/10/19 14:14:08;;;;;;;16.10;3.67;;;;;;;;;;5015386;28;20049;-74
2022/10/19 14:16:34;;;;;;;13.68;3.45;;;;;;;;;;5014696;28;20496;-74
2022/10/19 14:19:00;;;;;;;14.48;3.47;;;;;;;;;;4997269;28;20049;-73
2022/10/19 14:21:35;;;;;;;13.63;3.60;;;;;;;;;;5014523;28;20379;-74
2022/10/19 14:24:02;;;;;;;14.77;3.40;;;;;;;;;;5015533;28;20050;-74
2022/10/19 14:26:30;;;;;;;;;;;;;;;;;;5014922;28;20054;-73
2022/10/19 14:28:58;;;;;;;13.52;3.53;;;;;;;;;;5013948;28;19928;-71
2022/10/19 14:31:25;;;;;;;11.07;3.22;;;;;;;;;;5014502;28;20389;-71
2022/10/19 14:33:53;;;;;;;16.55;3.60;;;;;;;;;;5030779;28;20115;-73
2022/10/19 14:36:20;;;;;;;17.20;3.35;;;;;;;;;;5018569;28;20490;-71
2022/10/19 14:38:47;;;;;;;12.05;2.90;;;;;;;;;;5002755;28;20544;-70
2022/10/19 14:41:26;;;;;;;15.43;3.50;;;;;;;;;;5008368;28;20386;-73
2022/10/19 14:43:52;;;;;;;17.60;3.30;;;;;;;;;;5015089;28;20050;-72
2022/10/19 14:46:18;;;;;;;18.02;3.30;;;;;;;;;;5014282;28;20052;-71